Meteo Giornale » Osservazioni meteo Stati Uniti (USA) » Mount Ida
ore: 18:53 - Osservazioni Meteo Mount Ida
Lat. 34° 33' N Lon. 93° 35' W Alt. 214 metri s.l.m.
34 °C
Poco Nuvoloso
Temp. 24 Ore
22 °C
38 °C
Est/Sud-Est
11.1 Km/h
Dew point 18 °C
Umidità 38 %
Visibilità 10 Km
Il sole sorge alle ore 06:46
Il sole tramonta alle ore 19:42
| Data e Ora | Cielo e Fenomeni | T °C | DP °C | Um. % | Pres. hPa | Vis. km | Vento km/h | |
|---|---|---|---|---|---|---|---|---|
| Oggi h: 18:53 | Poco Nuvoloso | 34 | 18 | 38 | 1014 | 10 | E/SE 11.1 | |
| Oggi h: 17:53 | Sereno | 36 | 17 | 32 | 1014 | 10 | N 7.4 | |
| Oggi h: 16:53 | Nuvoloso | 38 | 16 | 27 | 1014 | 10 | N 5.5 | |
| Oggi h: 15:53 | Nuvoloso | 38 | 16 | 27 | 1015 | 10 | N 7.4 | |
| Oggi h: 14:53 | Poco Nuvoloso | 37 | 17 | 30 | 1016 | 10 | N 9.3 | |
| Oggi h: 13:53 | Sereno | 37 | 17 | 30 | 1016 | 10 | E/SE 7.4 | |
| Oggi h: 12:53 | Sereno | 37 | 16 | 28 | 1017 | 10 | N 7.4 | |
| Oggi h: 11:53 | Sereno | 35 | 14 | 28 | 1017 | 10 | N 0 | |
| Oggi h: 10:53 | Sereno | 34 | 19 | 41 | 1018 | 10 | N 0 | |
| Oggi h: 09:53 | Sereno | 31 | 21 | 55 | 1018 | 10 | N 5.5 | |
| Oggi h: 08:53 | Sereno | 28 | 21 | 65 | 1018 | 10 | N 0 | |
| Oggi h: 07:53 | Sereno | 22 | 19 | 83 | 1017 | 10 | N 0 | |
| Oggi h: 06:53 | Sereno | 22 | 20 | 88 | 1017 | 10 | N 0 | |
| Oggi h: 05:53 | Sereno | 23 | 19 | 78 | 1016 | 10 | N 0 | |
| Oggi h: 04:53 | Sereno | 25 | 19 | 69 | 1016 | 10 | N 0 | |
| Oggi h: 03:53 | Sereno | 23 | 18 | 73 | 1016 | 10 | N 0 | |
| Oggi h: 02:53 | Sereno | 23 | 18 | 73 | 1016 | 10 | N 0 | |
| Oggi h: 01:53 | Sereno | 24 | 18 | 69 | 1016 | 10 | N 0 | |
| Oggi h: 00:53 | Sereno | 26 | 18 | 61 | 1016 | 10 | N 0 | |
| Ieri h: 23:53 | Sereno | 26 | 18 | 61 | 1016 | 10 | N 0 | |
| Ieri h: 22:53 | Sereno | 25 | 16 | 57 | 1015 | 10 | N 0 | |
| Ieri h: 21:53 | Sereno | 26 | 14 | 47 | 1015 | 10 | N 0 | |
| Ieri h: 20:53 | Sereno | 27 | 15 | 47 | 1014 | 10 | N 0 | |
| Ieri h: 19:53 | Sereno | 31 | 15 | 37 | 1014 | 10 | N 5.5 | |



